Not for real navigation | The accuracy of this data is not assured | See disclaimer for more information
ICAO NAME COUNTRY WIND Kt GUST Kt VIS TEMP/DEW BARO
ENUN 45 55 9999 3/-1 29.53
ENUN 310620Z AUTO 29045G55KT //// OVC020/// 03/M01 Q1000 WM18/S/
PALU Cape Lisburne, Cape Lisburne L AK United States 36 50 9999 -5/-19 29.79
PALU 310555Z AUTO 17036G50KT 10SM CAVOK M05/M19 A2979 RMK AO2 PK WND 17056/0520 SLP086 T10491192 11011 21053 58010
ENLK Leknes Norway 34 45 9999 3/-1 29.26
ENLK 310550Z 27034G45KT 9999 VCSH SCT015 BKN025 03/M01 Q0991
PATE Teller AK United States 33 45 1600 -8/-11 29.79
PATE 310636Z AUTO 18033G45KT 1 0.25SM -SN FEW050 OVC100 M08/M11 A2979 RMK AO2 PK WND 19045/0632 SNB08 P0000 FZRANO
CWEK Grey Islet Meteorological Aero Canada 37 42 9999 4/-4 29.92
CWEK 310600Z AUTO 04037G42KT 04/M04 RMK AO1 1030 PK WND 05043/0515 SLP076 T00361036 50002

Show more

Close Menu